Terminal Aerodrome Forecast
Issued by NWS Riverton, WY

Home | Current Version | Previous Version | Text Only | Print | Product List | Glossary On
Versions: 1 2 3 4 5 6 7 8 9 10 11 12 13
000
FTUS45 KRIW 210500
TAFRIW
TAF
KRIW 210526Z 2106/2206 09010KT P6SM SCT250
     FM211200 11007KT P6SM SCT250
     FM211800 17009KT P6SM SCT250
     FM220200 21007KT P6SM BKN250=

USA.gov is the U.S. government's official web portal to all federal, state and local government web resources and services.